X  Chiuso Dati meteorologici dell'aviazione (METAR)     LYNI Nis Airport
Temperatura
14°C Temperatura
9°C Punto di rugiada
72% Umidità



Vento
1 M/S
2 MPH
3 KM/O
2 KTS



290°
ONO
Condizioni attuali

Parzialmente nuvoloso Parzialmente nuvoloso
Pressione 1022.92 (hPa) - 30.21 (inHg)
Visibilità 6.2 (miglio) - 10 (km)
Aeroporto
Codice-Aeroporto LYNI

Posizione: Nis Airport
Distanza: 63 (km)

Metar:
LYNI 041600Z 29002KT 9999 FEW050 14/09 Q1023 NOSIG

Ore: 04-10-2022 18:00 CEST